Greifswald — 3FEC8 — position and weather

sailwx.info

Track history (hours):
 
Tides and Currents Weather Stations Pressure Air Temp Water Temp Dewpoint Dewpoint Depression Visibility Wind Speed Wind Dir Waves Ship Positions

Greifswald

Last reported at 2014-Aug-01 09:32 UTC. Time now 2014-Aug-01 12:00 UTC.
Position N 43°26' E 035°56'.

Length 191 m; draft 6.3 m.

Type: Ship. MMSI: 370492000.

Date/timePositionNaut miles runAvg speedWind from/ knotsBaromVisibWave heightAir tempDewpointWater temp
2014-Aug-01 09:32N 43°26' E 035°56'1310.2
2014-Aug-01 08:17N 43°31' E 035°40'810.1
2014-Aug-01 07:28N 43°34' E 035°30'910.1
2014-Aug-01 06:32N 43°38' E 035°18'1010.3
2014-Aug-01 05:33N 43°42' E 035°05'1010.0
2014-Aug-01 04:31N 43°46' E 034°52'1210.0
2014-Aug-01 03:17N 43°50' E 034°36'10 9.9
2014-Aug-01 02:14N 43°55' E 034°23'79 9.1
2014-Jul-31 17:31N 44°42' E 032°54'3310.5
2014-Jul-31 14:23N 45°07' E 032°23'88 9.8
2014-Jul-31 05:27N 46°12' E 030°58'9 9.8
2014-Jul-31 04:33N 46°17' E 030°48'23 0.9
2014-Jul-30 01:33N 46°04' E 031°15'1312.9
2014-Jul-30 00:33N 45°55' E 031°29'1110.7
2014-Jul-29 23:33N 45°47' E 031°39'1510.8
2014-Jul-29 22:12N 45°36' E 031°53'711.1
2014-Jul-29 21:32N 45°30' E 031°59'5610.8
2014-Jul-29 16:23N 44°46' E 032°47'10 9.9
2014-Jul-29 15:23N 44°38' E 032°56'127 9.1
2014-Jul-29 01:29N 43°37' E 035°30'1110.8
2014-Jul-29 00:30N 43°32' E 035°43'  
2014-Jul-25 15:33N 43°28' E 035°42'4012.4
2014-Jul-25 12:18N 43°43' E 034°51'1013.3
2014-Jul-25 11:33N 43°47' E 034°38'1313.4
2014-Jul-25 10:33N 43°52' E 034°21'  
2014-Jul-23 03:14N 46°19' E 030°43'17 9.8
2014-Jul-23 01:29N 46°11' E 031°05'1311.3
2014-Jul-23 00:19N 46°02' E 031°18'811.2
2014-Jul-22 23:33N 45°56' E 031°26'1111.2
2014-Jul-22 22:33N 45°47' E 031°37'1111.0
2014-Jul-22 21:33N 45°40' E 031°48'  
Track history (hours):
 
Tides and Currents Weather Stations Pressure Air Temp Water Temp Dewpoint Dewpoint Depression Visibility Wind Speed Wind Dir Waves Ship Positions

Greifswald

Last reported at 2014-Aug-01 09:32 UTC. Time now 2014-Aug-01 12:00 UTC.
Position N 43°26' E 035°56'.

Length 191 m; draft 6.3 m.

Type: Ship. MMSI: 370492000.

Date/timePositionNaut miles runAvg speedWind from/ knotsBaromVisibWave heightAir tempDewpointWater temp
2014-Aug-01 09:32N 43°26' E 035°56'1310.2
2014-Aug-01 08:17N 43°31' E 035°40'810.1
2014-Aug-01 07:28N 43°34' E 035°30'910.1
2014-Aug-01 06:32N 43°38' E 035°18'1010.3
2014-Aug-01 05:33N 43°42' E 035°05'1010.0
2014-Aug-01 04:31N 43°46' E 034°52'1210.0
2014-Aug-01 03:17N 43°50' E 034°36'10 9.9
2014-Aug-01 02:14N 43°55' E 034°23'79 9.1
2014-Jul-31 17:31N 44°42' E 032°54'3310.5
2014-Jul-31 14:23N 45°07' E 032°23'88 9.8
2014-Jul-31 05:27N 46°12' E 030°58'9 9.8
2014-Jul-31 04:33N 46°17' E 030°48'23 0.9
2014-Jul-30 01:33N 46°04' E 031°15'1312.9
2014-Jul-30 00:33N 45°55' E 031°29'1110.7
2014-Jul-29 23:33N 45°47' E 031°39'1510.8
2014-Jul-29 22:12N 45°36' E 031°53'711.1
2014-Jul-29 21:32N 45°30' E 031°59'5610.8
2014-Jul-29 16:23N 44°46' E 032°47'10 9.9
2014-Jul-29 15:23N 44°38' E 032°56'127 9.1
2014-Jul-29 01:29N 43°37' E 035°30'1110.8
2014-Jul-29 00:30N 43°32' E 035°43'  
2014-Jul-25 15:33N 43°28' E 035°42'4012.4
2014-Jul-25 12:18N 43°43' E 034°51'1013.3
2014-Jul-25 11:33N 43°47' E 034°38'1313.4
2014-Jul-25 10:33N 43°52' E 034°21'  
2014-Jul-23 03:14N 46°19' E 030°43'17 9.8
2014-Jul-23 01:29N 46°11' E 031°05'1311.3
2014-Jul-23 00:19N 46°02' E 031°18'811.2
2014-Jul-22 23:33N 45°56' E 031°26'1111.2
2014-Jul-22 22:33N 45°47' E 031°37'1111.0
2014-Jul-22 21:33N 45°40' E 031°48'  

Dump ship's entire track history